KSMO/SMO METAR and TAF weather

Enter ICAO airport designator
Station Type Date Time Source
KSMO METAR 2019/08/25 19:51 UTC NOAA

KSMO 251951Z VRB06KT 10SM CLR 24/19 A2996 RMK AO2 SLP144 T02440189


Station Type Date Time Source
KSMO Decoded METAR 2019/08/25 19:51 UTC NOAA

Station name not available
Aug 25, 2019 - 03:51 PM EDT / 2019.08.25 1951 UTC
Wind: Variable at 7 MPH (6 KT):0
Visibility: 10 mile(s):0
Sky conditions: clear
Temperature: 75.9 F (24.4 C)
Dew Point: 66.0 F (18.9 C)
Relative Humidity: 71%
Pressure (altimeter): 29.96 in. Hg (1014 hPa)
ob: KSMO 251951Z VRB06KT 10SM CLR 24/19 A2996 RMK AO2 SLP144 T02440189
cycle: 20

Station Type Date Time Source
KSMO TAF 2019/08/25 18:29 UTC NOAA

TAF KSMO 251729Z 2518/2618 20004KT P6SM SKC
FM252000 24008KT P6SM SKC
FM260300 VRB03KT P6SM SKC
FM260900 VRB03KT 3SM BR BKN004
FM261500 VRB03KT P6SM SCT004

Example: see airport list